createdAt,value
2022-10-11T00:01:37.703Z,50.70
2022-10-11T00:04:04.107Z,50.78
2022-10-11T00:06:30.433Z,50.41
2022-10-11T00:08:56.782Z,50.38
2022-10-11T00:11:23.121Z,50.70
2022-10-11T00:13:49.446Z,50.99
2022-10-11T00:16:15.783Z,50.29
2022-10-11T00:18:42.105Z,50.40
2022-10-11T00:21:09.344Z,51.25
2022-10-11T00:23:35.709Z,50.81
2022-10-11T00:26:02.299Z,50.67
2022-10-11T00:28:29.100Z,50.85
2022-10-11T00:30:55.495Z,51.73
2022-10-11T00:33:21.811Z,51.37
2022-10-11T00:35:49.009Z,51.31
2022-10-11T00:38:16.200Z,50.99
2022-10-11T00:40:42.549Z,51.71
2022-10-11T00:43:09.732Z,51.09
2022-10-11T00:45:36.122Z,51.65
2022-10-11T00:48:03.313Z,51.38
2022-10-11T00:50:29.636Z,51.41
2022-10-11T00:52:55.979Z,50.93
2022-10-11T00:55:22.299Z,50.62
2022-10-11T00:57:48.668Z,51.22
2022-10-11T01:00:15.033Z,51.54
2022-10-11T01:02:41.370Z,51.06
2022-10-11T01:05:28.162Z,51.17
2022-10-11T01:07:55.051Z,51.80
2022-10-11T01:10:21.379Z,51.60
2022-10-11T01:12:47.683Z,51.46
2022-10-11T01:15:14.891Z,51.60
2022-10-11T01:17:41.208Z,51.13
2022-10-11T01:20:07.561Z,51.83
2022-10-11T01:22:33.909Z,51.64
2022-10-11T01:25:00.335Z,51.58
2022-10-11T01:27:26.661Z,52.10
2022-10-11T01:29:53.020Z,51.53
2022-10-11T01:32:19.364Z,51.61
2022-10-11T01:34:46.551Z,51.43
2022-10-11T01:37:12.890Z,51.87
2022-10-11T01:39:39.218Z,52.06
2022-10-11T01:42:05.573Z,52.14
2022-10-11T01:44:31.942Z,51.91
2022-10-11T01:46:58.296Z,52.28
2022-10-11T01:49:24.639Z,52.11
2022-10-11T01:51:50.991Z,52.13
2022-10-11T01:54:18.194Z,51.89
2022-10-11T01:56:45.473Z,52.68
2022-10-11T01:59:12.671Z,52.77
2022-10-11T02:01:39.054Z,52.63
2022-10-11T02:04:05.415Z,52.78
2022-10-11T02:06:31.758Z,52.71
2022-10-11T02:08:58.088Z,52.37
2022-10-11T02:11:24.404Z,52.88
2022-10-11T02:13:50.736Z,52.81
2022-10-11T02:16:17.938Z,52.39
2022-10-11T02:18:44.272Z,53.01
2022-10-11T02:21:11.470Z,52.93
2022-10-11T02:23:37.802Z,52.75
2022-10-11T02:26:04.504Z,52.70
2022-10-11T02:28:31.192Z,52.81
2022-10-11T02:30:57.555Z,52.72
2022-10-11T02:33:23.867Z,52.44
2022-10-11T02:35:50.204Z,52.50
2022-10-11T02:38:16.528Z,52.55
2022-10-11T02:40:42.933Z,53.15
2022-10-11T02:43:10.140Z,53.00
2022-10-11T02:45:36.466Z,53.57
2022-10-11T02:48:02.800Z,53.29
2022-10-11T02:50:29.123Z,52.83
2022-10-11T02:52:55.443Z,53.26
2022-10-11T02:55:21.802Z,53.18
2022-10-11T02:57:48.120Z,53.31
2022-10-11T03:00:15.351Z,53.45
2022-10-11T03:02:41.706Z,52.99
2022-10-11T03:05:08.198Z,52.48
2022-10-11T03:07:34.523Z,52.88
2022-10-11T03:10:00.890Z,54.07
2022-10-11T03:12:27.197Z,53.05
2022-10-11T03:14:53.533Z,53.14
2022-10-11T03:17:36.232Z,53.06
2022-10-11T03:20:03.093Z,53.13
2022-10-11T03:22:30.353Z,53.06
2022-10-11T03:25:02.528Z,52.65
2022-10-11T03:27:30.204Z,52.80
2022-10-11T03:29:56.547Z,52.96
2022-10-11T03:32:22.860Z,52.78
2022-10-11T03:34:49.197Z,52.33
2022-10-11T03:37:15.559Z,52.51
2022-10-11T03:39:41.997Z,52.11
2022-10-11T03:42:08.315Z,52.24
2022-10-11T03:44:34.785Z,52.29
2022-10-11T03:47:01.106Z,52.16
2022-10-11T03:49:27.415Z,52.50
2022-10-11T03:51:53.762Z,52.78
2022-10-11T03:54:20.956Z,52.42
2022-10-11T03:56:47.338Z,52.87
2022-10-11T03:59:14.519Z,53.57
2022-10-11T04:01:40.903Z,53.33
2022-10-11T04:04:07.284Z,53.17
2022-10-11T04:06:34.506Z,53.92
2022-10-11T04:09:00.907Z,53.04
2022-10-11T04:11:27.239Z,53.16
2022-10-11T04:13:53.556Z,53.29
2022-10-11T04:16:19.916Z,54.13
2022-10-11T04:18:47.107Z,54.17
2022-10-11T04:21:13.519Z,53.14
2022-10-11T04:23:40.694Z,53.68
2022-10-11T04:26:07.584Z,53.82
2022-10-11T04:28:34.461Z,53.64
2022-10-11T04:31:00.831Z,53.68
2022-10-11T04:33:30.081Z,53.98
2022-10-11T04:35:56.421Z,53.38
2022-10-11T04:38:22.836Z,54.30
2022-10-11T04:40:49.200Z,54.60
2022-10-11T04:43:15.511Z,53.85
2022-10-11T04:45:41.844Z,54.09
2022-10-11T04:48:09.037Z,53.27
2022-10-11T04:50:36.265Z,53.05
2022-10-11T04:53:02.611Z,53.65
2022-10-11T04:55:29.037Z,52.89
2022-10-11T04:57:55.388Z,53.01
2022-10-11T05:00:24.511Z,52.70
2022-10-11T05:02:50.928Z,53.09
2022-10-11T05:05:17.371Z,52.57
2022-10-11T05:07:43.799Z,53.69
2022-10-11T05:10:10.210Z,53.26
2022-10-11T05:12:38.472Z,52.46
2022-10-11T05:15:07.630Z,52.17
2022-10-11T05:17:34.183Z,52.78
2022-10-11T05:20:02.439Z,52.58
2022-10-11T05:22:28.844Z,52.81
2022-10-11T05:24:55.244Z,52.98
2022-10-11T05:27:21.672Z,52.71
2022-10-11T05:29:49.028Z,53.05
2022-10-11T05:32:15.513Z,52.59
2022-10-11T05:34:42.923Z,53.21
2022-10-11T05:37:09.382Z,53.11
2022-10-11T05:39:35.828Z,53.28
2022-10-11T05:42:04.563Z,53.23
2022-10-11T05:44:33.026Z,53.45
2022-10-11T05:46:59.562Z,53.29
2022-10-11T05:49:26.925Z,53.98
2022-10-11T05:51:54.291Z,54.21
2022-10-11T05:54:21.675Z,55.03
2022-10-11T05:56:49.057Z,55.02
2022-10-11T05:59:15.510Z,54.92
2022-10-11T06:01:42.927Z,54.61
2022-10-11T06:04:10.386Z,54.95
2022-10-11T06:06:36.835Z,54.92
2022-10-11T06:09:04.263Z,54.89
2022-10-11T06:11:31.638Z,54.80
2022-10-11T06:13:58.983Z,54.77
2022-10-11T06:16:26.352Z,54.70
2022-10-11T06:18:52.788Z,54.24
2022-10-11T06:21:20.174Z,54.13
2022-10-11T06:23:46.623Z,55.01
2022-10-11T06:26:14.095Z,54.24
2022-10-11T06:28:40.621Z,54.04
2022-10-11T06:31:08.041Z,53.90
2022-10-11T06:33:34.485Z,54.17
2022-10-11T06:36:00.905Z,54.30
2022-10-11T06:38:28.303Z,53.71
2022-10-11T06:40:54.739Z,54.07
2022-10-11T06:43:21.182Z,53.76
2022-10-11T06:45:47.590Z,54.10
2022-10-11T06:48:14.018Z,54.14
2022-10-11T06:50:59.214Z,53.26
2022-10-11T06:53:27.597Z,53.35
2022-10-11T06:55:54.954Z,53.61
2022-10-11T06:58:21.403Z,53.54
2022-10-11T07:00:48.832Z,53.25
2022-10-11T07:03:16.185Z,53.61
2022-10-11T07:05:43.459Z,53.62
2022-10-11T07:08:10.789Z,53.27
2022-10-11T07:10:38.130Z,53.11
2022-10-11T07:13:04.570Z,52.67
2022-10-11T07:15:30.988Z,52.08
2022-10-11T07:17:58.323Z,51.79
2022-10-11T07:20:24.855Z,50.98
2022-10-11T07:22:51.335Z,51.60
2022-10-11T07:25:17.768Z,51.35
2022-10-11T07:27:44.211Z,50.57
2022-10-11T07:30:10.686Z,51.54
2022-10-11T07:32:37.130Z,50.35
2022-10-11T07:35:03.577Z,50.93
2022-10-11T07:37:31.005Z,50.73
2022-10-11T07:39:58.399Z,51.08
2022-10-11T07:42:24.839Z,51.19
2022-10-11T07:44:52.207Z,51.63
2022-10-11T07:47:18.638Z,51.09
2022-10-11T07:49:45.119Z,51.81
2022-10-11T07:52:11.582Z,52.08
2022-10-11T07:54:38.036Z,52.38
2022-10-11T07:57:04.513Z,53.31
2022-10-11T07:59:31.032Z,53.45
2022-10-11T08:01:58.489Z,53.47
2022-10-11T08:04:24.969Z,54.05
2022-10-11T08:06:53.487Z,53.75
2022-10-11T08:09:21.078Z,53.92
2022-10-11T08:11:47.612Z,53.69
2022-10-11T08:14:14.114Z,53.77
2022-10-11T08:16:41.630Z,53.77
2022-10-11T08:19:08.046Z,53.42
2022-10-11T08:21:35.412Z,53.26
2022-10-11T08:24:02.734Z,53.71
2022-10-11T08:26:30.044Z,53.60
2022-10-11T08:28:56.851Z,53.31
2022-10-11T08:31:23.644Z,53.24
2022-10-11T08:33:51.023Z,53.68
2022-10-11T08:36:17.596Z,53.43
2022-10-11T08:38:44.122Z,53.24
2022-10-11T08:41:10.555Z,53.25
2022-10-11T08:43:37.908Z,53.64
2022-10-11T08:46:05.758Z,53.03
2022-10-11T08:48:33.388Z,53.35
2022-10-11T08:51:00.886Z,53.44
2022-10-11T08:53:28.443Z,53.07
2022-10-11T08:55:56.078Z,53.03
2022-10-11T08:58:22.698Z,52.83
2022-10-11T09:00:49.373Z,53.08
2022-10-11T09:03:16.924Z,52.64
2022-10-11T09:05:45.397Z,52.86
2022-10-11T09:08:14.027Z,52.53
2022-10-11T09:10:40.819Z,53.38
2022-10-11T09:13:07.298Z,52.83
2022-10-11T09:15:34.583Z,51.84
2022-10-11T09:18:01.815Z,52.53
2022-10-11T09:20:29.050Z,52.23
2022-10-11T09:22:56.327Z,52.43
2022-10-11T09:25:23.571Z,52.37
2022-10-11T09:28:02.303Z,52.06
2022-10-11T09:30:29.503Z,52.55
2022-10-11T09:32:57.776Z,52.75
2022-10-11T09:35:25.079Z,52.81
2022-10-11T09:37:51.496Z,52.50
2022-10-11T09:40:18.898Z,52.35
2022-10-11T09:42:45.372Z,51.76
2022-10-11T09:45:12.607Z,51.67
2022-10-11T09:47:38.979Z,52.69
2022-10-11T09:50:06.198Z,53.08
2022-10-11T09:52:33.419Z,52.64
2022-10-11T09:54:59.879Z,52.39
2022-10-11T09:57:27.117Z,52.63
2022-10-11T09:59:54.412Z,52.46
2022-10-11T10:02:21.646Z,52.53
2022-10-11T10:04:48.893Z,51.88
2022-10-11T10:07:15.336Z,52.07
2022-10-11T10:09:41.825Z,52.02
2022-10-11T10:12:08.156Z,51.73
2022-10-11T10:14:34.663Z,52.52
2022-10-11T10:17:01.869Z,51.63
2022-10-11T10:19:29.156Z,52.27
2022-10-11T10:21:56.386Z,52.44
2022-10-11T10:24:22.777Z,51.26
2022-10-11T10:26:49.981Z,50.90
2022-10-11T10:29:16.389Z,51.55
2022-10-11T10:32:09.301Z,51.08
2022-10-11T10:34:29.055Z,51.40
2022-10-11T10:36:55.391Z,51.44
2022-10-11T10:39:22.579Z,51.02
2022-10-11T10:41:48.921Z,51.31
2022-10-11T10:44:15.256Z,51.61
2022-10-11T10:46:42.457Z,51.41
2022-10-11T10:49:48.919Z,51.68
2022-10-11T10:51:55.201Z,50.71
2022-10-11T10:54:21.556Z,50.40
2022-10-11T10:56:47.922Z,50.90
2022-10-11T10:59:15.143Z,51.22
2022-10-11T11:04:07.882Z,49.95
2022-10-11T11:06:36.495Z,49.84
2022-10-11T11:09:03.135Z,50.94
2022-10-11T11:11:29.436Z,49.71
2022-10-11T11:13:55.864Z,50.04
2022-10-11T11:16:22.209Z,49.93
2022-10-11T11:18:48.573Z,50.16
2022-10-11T11:21:15.791Z,50.36
2022-10-11T11:23:42.141Z,49.91
2022-10-11T11:26:09.341Z,50.12
2022-10-11T11:28:35.712Z,48.70
2022-10-11T11:31:02.218Z,48.95
2022-10-11T11:33:28.618Z,48.54
2022-10-11T11:35:54.944Z,48.54
2022-10-11T11:38:23.038Z,49.01
2022-10-11T11:40:52.271Z,49.31
2022-10-11T11:43:18.631Z,49.00
2022-10-11T11:45:44.963Z,49.43
2022-10-11T11:48:11.301Z,49.44
2022-10-11T11:50:37.623Z,49.32
2022-10-11T11:53:03.958Z,48.88
2022-10-11T11:55:30.262Z,49.70
2022-10-11T11:57:56.632Z,50.06
2022-10-11T12:00:22.954Z,50.00
2022-10-11T12:02:49.291Z,50.96
2022-10-11T12:05:16.500Z,51.05
2022-10-11T12:07:42.860Z,49.36
2022-10-11T12:10:10.072Z,50.62
2022-10-11T12:12:36.398Z,48.91
2022-10-11T12:15:02.780Z,50.31
2022-10-11T12:17:29.099Z,48.67
2022-10-11T12:19:55.436Z,49.82
2022-10-11T12:22:21.775Z,48.94
2022-10-11T12:24:48.110Z,48.36
2022-10-11T12:27:14.483Z,50.13
2022-10-11T12:29:40.783Z,49.47
2022-10-11T12:32:07.231Z,49.88
2022-10-11T12:34:33.667Z,48.29
2022-10-11T12:37:04.449Z,47.89
2022-10-11T12:39:32.305Z,49.19
2022-10-11T12:42:00.609Z,49.02
2022-10-11T12:44:28.952Z,49.28
2022-10-11T12:46:55.275Z,49.10
2022-10-11T12:49:21.609Z,49.79
2022-10-11T12:51:47.915Z,48.98
2022-10-11T12:54:26.673Z,48.61
2022-10-11T12:56:54.465Z,48.15
2022-10-11T12:59:20.784Z,48.10
2022-10-11T13:01:47.261Z,48.95
2022-10-11T13:04:14.574Z,48.52
2022-10-11T13:06:40.927Z,48.15
2022-10-11T13:09:07.232Z,48.76
2022-10-11T13:11:33.585Z,48.09
2022-10-11T13:13:59.921Z,47.94
2022-10-11T13:16:26.300Z,47.69
2022-10-11T13:18:52.602Z,47.29
2022-10-11T13:21:23.015Z,47.67
2022-10-11T13:23:50.387Z,47.09
2022-10-11T13:26:16.726Z,47.09
2022-10-11T13:28:43.077Z,47.41
2022-10-11T13:31:10.294Z,46.85
2022-10-11T13:33:36.616Z,47.23
2022-10-11T13:36:03.238Z,46.89
2022-10-11T13:38:29.725Z,46.67
2022-10-11T13:40:56.077Z,46.95
2022-10-11T13:43:23.571Z,46.85
2022-10-11T13:45:49.942Z,47.11
2022-10-11T13:48:16.302Z,47.10
2022-10-11T13:50:42.640Z,46.90
2022-10-11T13:53:09.000Z,46.99
2022-10-11T13:55:35.374Z,47.10
2022-10-11T13:58:01.731Z,46.71
2022-10-11T14:00:28.055Z,47.06
2022-10-11T14:02:54.368Z,46.78
2022-10-11T14:05:20.708Z,47.14
2022-10-11T14:07:47.043Z,47.19
2022-10-11T14:10:13.363Z,47.12
2022-10-11T14:12:39.692Z,47.00
2022-10-11T14:15:06.071Z,46.72
2022-10-11T14:17:32.384Z,46.69
2022-10-11T14:20:04.019Z,46.82
2022-10-11T14:22:33.772Z,46.92
2022-10-11T14:25:00.072Z,47.02
2022-10-11T14:27:26.423Z,46.99
2022-10-11T14:30:12.884Z,46.83
2022-10-11T14:32:39.093Z,46.69
2022-10-11T14:35:05.449Z,46.60
2022-10-11T14:37:31.766Z,47.15
2022-10-11T14:39:58.109Z,46.71
2022-10-11T14:42:24.541Z,47.13
2022-10-11T14:44:50.865Z,47.30
2022-10-11T14:47:17.208Z,46.88
2022-10-11T14:49:43.552Z,46.84
2022-10-11T14:52:09.891Z,46.75
2022-10-11T14:54:36.229Z,47.12
2022-10-11T14:57:02.579Z,47.19
2022-10-11T14:59:28.903Z,46.73
2022-10-11T15:01:55.296Z,46.84
2022-10-11T15:04:21.662Z,46.95
2022-10-11T15:06:47.981Z,47.09
2022-10-11T15:09:14.404Z,47.03
2022-10-11T15:11:40.725Z,46.91
2022-10-11T15:14:07.037Z,47.46
2022-10-11T15:16:33.391Z,46.87
2022-10-11T15:18:59.736Z,47.31
2022-10-11T15:21:26.152Z,47.29
2022-10-11T15:23:52.519Z,46.94
2022-10-11T15:26:18.843Z,47.45
2022-10-11T15:28:45.280Z,47.16
2022-10-11T15:31:12.554Z,47.33
2022-10-11T15:33:38.926Z,47.24
2022-10-11T15:36:05.594Z,47.58
2022-10-11T15:38:32.111Z,47.63
2022-10-11T15:40:58.466Z,47.87
2022-10-11T15:43:25.289Z,47.31
2022-10-11T15:45:51.654Z,47.39
2022-10-11T15:48:18.849Z,47.42
2022-10-11T15:50:45.200Z,48.05
2022-10-11T15:53:12.401Z,48.08
2022-10-11T15:55:38.803Z,48.07
2022-10-11T15:58:05.174Z,48.09
2022-10-11T16:00:31.528Z,47.76
2022-10-11T16:02:57.901Z,48.06
2022-10-11T16:05:24.247Z,48.41
2022-10-11T16:07:50.607Z,48.28
2022-10-11T16:10:17.005Z,48.52
2022-10-11T16:12:43.392Z,48.44
2022-10-11T16:15:09.749Z,48.27
2022-10-11T16:17:36.080Z,48.28
2022-10-11T16:20:02.494Z,48.21
2022-10-11T16:22:28.833Z,48.25
2022-10-11T16:24:55.196Z,48.48
2022-10-11T16:27:21.542Z,48.58
2022-10-11T16:29:47.876Z,48.99
2022-10-11T16:32:14.231Z,48.51
2022-10-11T16:34:40.597Z,49.05
2022-10-11T16:37:07.172Z,49.13
2022-10-11T16:39:33.514Z,48.84
2022-10-11T16:41:59.867Z,48.57
2022-10-11T16:44:26.215Z,48.84
2022-10-11T16:46:52.602Z,48.67
2022-10-11T16:49:18.925Z,48.83
2022-10-11T16:51:45.283Z,48.74
2022-10-11T16:54:15.536Z,48.50
2022-10-11T16:56:44.298Z,48.94
2022-10-11T16:59:12.525Z,48.80
2022-10-11T17:01:38.860Z,48.62
2022-10-11T17:04:06.076Z,49.06
2022-10-11T17:06:32.426Z,48.83
2022-10-11T17:08:58.799Z,48.38
2022-10-11T17:11:25.988Z,48.29
2022-10-11T17:13:52.385Z,48.84
2022-10-11T17:16:18.824Z,48.52
2022-10-11T17:18:46.051Z,48.91
2022-10-11T17:21:12.526Z,48.48
2022-10-11T17:23:39.163Z,48.87
2022-10-11T17:26:10.849Z,48.75
2022-10-11T17:28:39.760Z,48.65
2022-10-11T17:31:06.435Z,48.48
2022-10-11T17:33:34.966Z,48.77
2022-10-11T17:36:01.550Z,48.30
2022-10-11T17:38:28.107Z,48.31
2022-10-11T17:40:54.755Z,48.20
2022-10-11T17:43:22.332Z,48.20
2022-10-11T17:45:49.836Z,48.24
2022-10-11T17:48:18.993Z,48.66
2022-10-11T17:50:50.386Z,48.88
2022-10-11T17:53:17.972Z,48.59
2022-10-11T17:55:45.197Z,48.07
2022-10-11T17:58:11.812Z,48.40
2022-10-11T18:00:38.640Z,48.28
2022-10-11T18:03:05.195Z,48.08
2022-10-11T18:05:33.942Z,48.25
2022-10-11T18:08:01.049Z,48.14
2022-10-11T18:10:29.747Z,48.36
2022-10-11T18:12:57.628Z,48.05
2022-10-11T18:15:24.056Z,48.20
2022-10-11T18:17:50.480Z,48.51
2022-10-11T18:20:18.497Z,47.88
2022-10-11T18:22:47.844Z,48.45
2022-10-11T18:25:17.725Z,48.34
2022-10-11T18:27:44.705Z,48.12
2022-10-11T18:30:13.693Z,48.50
2022-10-11T18:32:40.848Z,48.18
2022-10-11T18:35:07.400Z,48.39
2022-10-11T18:37:34.104Z,48.16
2022-10-11T18:40:01.024Z,48.11
2022-10-11T18:42:27.756Z,48.23
2022-10-11T18:44:54.472Z,48.30
2022-10-11T18:47:22.014Z,48.64
2022-10-11T18:49:49.282Z,48.57
2022-10-11T18:52:16.016Z,48.77
2022-10-11T18:57:09.851Z,48.56
2022-10-11T18:59:36.623Z,48.29
2022-10-11T19:02:03.447Z,49.01
2022-10-11T19:04:29.904Z,49.52
2022-10-11T19:06:56.694Z,49.11
2022-10-11T19:09:23.179Z,48.99
2022-10-11T19:11:50.594Z,48.62
2022-10-11T19:14:17.053Z,49.00
2022-10-11T19:16:43.730Z,49.36
2022-10-11T19:19:10.322Z,49.55
2022-10-11T19:21:38.181Z,49.40
2022-10-11T19:24:05.200Z,50.04
2022-10-11T19:26:38.411Z,49.93
2022-10-11T19:29:06.574Z,49.78
2022-10-11T19:34:14.961Z,50.34
2022-10-11T19:36:44.134Z,50.31
2022-10-11T19:39:13.256Z,50.32
2022-10-11T19:41:42.451Z,50.51
2022-10-11T19:44:10.717Z,50.80
2022-10-11T19:46:51.088Z,50.81
2022-10-11T19:49:20.546Z,50.88
2022-10-11T19:51:47.059Z,50.95
2022-10-11T19:54:13.698Z,50.89
2022-10-11T19:56:40.129Z,50.63
2022-10-11T19:59:06.688Z,50.59
2022-10-11T20:01:35.197Z,50.44
2022-10-11T20:04:01.727Z,50.77
2022-10-11T20:06:28.322Z,50.26
2022-10-11T20:09:24.049Z,49.51
2022-10-11T20:11:45.821Z,50.28
2022-10-11T20:14:12.201Z,49.97
2022-10-11T20:16:38.666Z,50.33
2022-10-11T20:19:05.186Z,50.45
2022-10-11T20:21:31.616Z,50.00
2022-10-11T20:23:58.092Z,49.90
2022-10-11T20:26:25.339Z,50.33
2022-10-11T20:28:55.957Z,50.37
2022-10-11T20:31:22.558Z,50.73
2022-10-11T20:33:51.714Z,51.22
2022-10-11T20:36:18.167Z,50.88
2022-10-11T20:38:47.277Z,51.14
2022-10-11T20:41:13.690Z,50.96
2022-10-11T20:43:40.048Z,51.80
2022-10-11T20:46:06.417Z,50.88
2022-10-11T20:48:32.803Z,51.77
2022-10-11T20:50:59.130Z,50.56
2022-10-11T20:53:28.320Z,51.55
2022-10-11T20:55:54.668Z,50.34
2022-10-11T20:58:21.083Z,50.55
2022-10-11T21:00:49.316Z,50.84
2022-10-11T21:03:15.769Z,50.51
2022-10-11T21:05:44.878Z,50.61
2022-10-11T21:08:13.161Z,49.63
2022-10-11T21:10:39.541Z,50.08
2022-10-11T21:13:05.923Z,50.48
2022-10-11T21:15:33.219Z,50.80
2022-10-11T21:17:59.563Z,50.14
2022-10-11T21:20:28.693Z,50.46
2022-10-11T21:22:55.919Z,50.60
2022-10-11T21:25:22.224Z,50.72
2022-10-11T21:27:52.190Z,50.07
2022-10-11T21:30:19.461Z,50.04
2022-10-11T21:32:45.940Z,50.54
2022-10-11T21:35:13.321Z,51.45
2022-10-11T21:37:40.587Z,51.12
2022-10-11T21:40:07.833Z,51.29
2022-10-11T21:42:34.471Z,52.01
2022-10-11T21:45:01.039Z,50.98
2022-10-11T21:47:27.501Z,51.33
2022-10-11T21:49:53.951Z,51.44
2022-10-11T21:52:20.355Z,51.13
2022-10-11T21:54:49.472Z,51.32
2022-10-11T21:57:15.901Z,51.25
2022-10-11T21:59:42.301Z,51.02
2022-10-11T22:02:08.741Z,51.43
2022-10-11T22:04:35.196Z,51.43
2022-10-11T22:07:01.537Z,51.46
2022-10-11T22:09:27.948Z,51.36
2022-10-11T22:11:54.309Z,50.93
2022-10-11T22:14:20.670Z,51.03
2022-10-11T22:16:47.064Z,51.80
2022-10-11T22:19:13.419Z,51.65
2022-10-11T22:21:44.773Z,51.29
2022-10-11T22:24:11.647Z,51.39
2022-10-11T22:26:38.009Z,51.29
2022-10-11T22:29:06.289Z,51.53
2022-10-11T22:31:32.731Z,51.24
2022-10-11T22:34:01.876Z,51.65
2022-10-11T22:36:28.284Z,51.64
2022-10-11T22:38:54.654Z,51.68
2022-10-11T22:41:21.085Z,51.63
2022-10-11T22:43:47.458Z,51.47
2022-10-11T22:46:16.623Z,51.81
2022-10-11T22:48:43.063Z,51.49
2022-10-11T22:51:09.481Z,51.34
2022-10-11T22:53:35.859Z,51.81
2022-10-11T22:56:04.999Z,51.68
2022-10-11T22:58:33.416Z,52.27
2022-10-11T23:00:59.790Z,51.36
2022-10-11T23:03:26.274Z,51.89
2022-10-11T23:05:53.539Z,51.66
2022-10-11T23:08:19.949Z,51.16
2022-10-11T23:10:46.394Z,51.88
2022-10-11T23:13:15.558Z,51.26
2022-10-11T23:15:43.828Z,51.54
2022-10-11T23:18:10.323Z,50.83
2022-10-11T23:20:39.496Z,51.37
2022-10-11T23:23:07.752Z,51.29
2022-10-11T23:25:35.018Z,51.77
2022-10-11T23:28:01.443Z,51.63
2022-10-11T23:30:30.599Z,52.17
2022-10-11T23:32:56.995Z,52.18
2022-10-11T23:35:23.327Z,52.00
2022-10-11T23:37:52.446Z,52.54
2022-10-11T23:40:18.829Z,51.96
2022-10-11T23:42:45.270Z,52.11
2022-10-11T23:45:14.446Z,53.15
2022-10-11T23:47:41.185Z,52.64
2022-10-11T23:50:08.529Z,52.76
2022-10-11T23:52:34.920Z,52.66
2022-10-11T23:55:01.326Z,53.14
2022-10-11T23:57:30.476Z,52.95
2022-10-11T23:59:56.843Z,53.41
